Time;durP1;ratioP1;P1;durP2;ratioP2;P2;SDS_P1;SDS_P2;PMS_P1;PMS_P2;Temp;Humidity;BMP_temperature;BMP_pressure;BME280_temperature;BME280_humidity;BME280_pressure;Samples;Min_cycle;Max_cycle;Signal;HPM_P1;HPM_P2
2023/08/04 00:02:18;;;;;;;1.87;1.47;;;24.10;99.90;;;;;;4938640;29;20940;-91
2023/08/04 00:04:47;;;;;;;3.07;1.67;;;24.10;99.90;;;;;;4941165;29;20566;-92
2023/08/04 00:07:13;;;;;;;2.07;1.63;;;24.10;99.90;;;;;;4941929;29;20914;-90
2023/08/04 00:09:40;;;;;;;2.63;1.57;;;24.10;99.90;;;;;;4941636;29;20457;-93
2023/08/04 00:12:07;;;;;;;1.70;1.57;;;24.10;99.90;;;;;;4942659;29;20544;-93
2023/08/04 00:14:34;;;;;;;2.10;1.73;;;24.00;99.90;;;;;;4941871;29;20507;-91
2023/08/04 00:17:01;;;;;;;2.13;1.60;;;24.10;99.90;;;;;;4941931;29;20534;-90
2023/08/04 00:19:29;;;;;;;1.67;1.57;;;24.10;99.90;;;;;;4942174;29;20459;-92
2023/08/04 00:21:56;;;;;;;2.30;1.57;;;24.10;99.90;;;;;;4943354;29;20542;-90
2023/08/04 00:24:23;;;;;;;3.83;1.60;;;24.00;99.90;;;;;;4942182;29;20532;-91
2023/08/04 00:26:50;;;;;;;1.83;1.73;;;24.00;99.90;;;;;;4943704;29;20447;-91
2023/08/04 00:29:17;;;;;;;2.53;2.03;;;24.10;99.90;;;;;;4942063;29;21001;-91
2023/08/04 00:31:44;;;;;;;1.90;1.50;;;24.00;99.90;;;;;;4942026;29;20536;-90
2023/08/04 00:34:10;;;;;;;2.20;1.40;;;24.00;99.90;;;;;;4942704;29;20544;-90
2023/08/04 00:36:39;;;;;;;3.10;1.73;;;24.10;99.90;;;;;;4943114;29;20556;-90
2023/08/04 00:39:05;;;;;;;1.87;1.43;;;24.00;99.90;;;;;;4942477;29;20481;-90
2023/08/04 00:41:32;;;;;;;3.20;1.50;;;24.00;99.90;;;;;;4942487;29;20483;-89
2023/08/04 00:43:59;;;;;;;2.33;1.83;;;24.00;99.90;;;;;;4942380;29;20450;-89
2023/08/04 00:46:26;;;;;;;1.70;1.60;;;24.00;99.90;;;;;;4923203;29;21006;-92
2023/08/04 00:48:53;;;;;;;1.60;1.50;;;24.00;99.90;;;;;;4923717;29;20530;-90
2023/08/04 00:51:20;;;;;;;1.60;1.40;;;24.00;99.90;;;;;;4923683;29;20456;-90
2023/08/04 00:53:48;;;;;;;1.43;1.33;;;24.00;99.90;;;;;;4921640;29;20539;-91
2023/08/04 00:56:16;;;;;;;1.87;1.40;;;24.00;99.90;;;;;;4921256;29;20445;-91
2023/08/04 00:58:43;;;;;;;2.10;1.90;;;24.00;99.90;;;;;;4919920;29;20485;-90
2023/08/04 01:01:10;;;;;;;2.50;1.60;;;24.00;99.90;;;;;;4921102;29;20802;-90
2023/08/04 01:03:38;;;;;;;1.40;1.30;;;24.00;99.90;;;;;;4940221;29;21017;-91
2023/08/04 01:06:11;;;;;;;2.20;1.60;;;24.00;99.90;;;;;;4938248;29;20513;-90
2023/08/04 01:08:43;;;;;;;1.73;1.40;;;24.00;99.90;;;;;;4938786;29;20450;-90
2023/08/04 01:11:14;;;;;;;1.60;1.50;;;24.00;99.90;;;;;;4938824;29;20451;-91
2023/08/04 01:13:45;;;;;;;2.00;1.47;;;24.00;99.90;;;;;;4939079;29;20984;-91
2023/08/04 01:16:12;;;;;;;2.37;1.50;;;24.00;99.90;;;;;;4939447;29;20448;-89
2023/08/04 01:18:39;;;;;;;2.37;1.57;;;24.00;99.90;;;;;;4939965;29;22437;-91
2023/08/04 01:21:07;;;;;;;1.90;1.60;;;24.00;99.90;;;;;;4938192;29;20544;-90
2023/08/04 01:23:34;;;;;;;1.97;1.77;;;24.00;99.90;;;;;;4937519;29;20449;-92
2023/08/04 01:26:03;;;;;;;2.73;1.60;;;24.00;99.90;;;;;;4938669;29;20997;-90
2023/08/04 01:28:32;;;;;;;1.50;1.40;;;24.00;99.90;;;;;;4938934;29;20447;-90
2023/08/04 01:31:01;;;;;;;1.90;1.60;;;24.00;99.90;;;;;;4939113;29;21120;-89
2023/08/04 01:33:30;;;;;;;1.90;1.40;;;24.00;99.90;;;;;;4939138;29;20930;-91
2023/08/04 01:35:57;;;;;;;1.70;1.50;;;24.00;99.90;;;;;;4937934;29;20916;-90
2023/08/04 01:38:25;;;;;;;2.23;1.83;;;24.00;99.90;;;;;;4937898;29;20442;-90
2023/08/04 01:40:52;;;;;;;1.93;1.57;;;24.00;99.90;;;;;;4938107;29;20447;-90
2023/08/04 01:43:20;;;;;;;1.70;1.20;;;24.00;99.90;;;;;;4940575;29;20443;-90
2023/08/04 01:45:47;;;;;;;1.50;1.30;;;24.00;99.90;;;;;;4941165;29;20573;-89
2023/08/04 01:48:14;;;;;;;2.43;1.57;;;24.00;99.90;;;;;;4941467;29;20451;-91
2023/08/04 01:50:41;;;;;;;1.80;1.40;;;24.00;99.90;;;;;;4940425;29;20453;-89
2023/08/04 01:53:08;;;;;;;1.90;1.60;;;24.00;99.90;;;;;;4940447;29;20804;-89
2023/08/04 01:55:36;;;;;;;2.23;1.43;;;24.00;99.90;;;;;;4940166;29;20452;-91
2023/08/04 01:58:03;;;;;;;1.40;1.30;;;24.00;99.90;;;;;;4940163;29;20457;-90
2023/08/04 02:00:30;;;;;;;1.87;1.67;;;24.00;99.90;;;;;;4940246;29;20467;-90
2023/08/04 02:02:57;;;;;;;1.53;1.43;;;24.00;99.90;;;;;;4940660;29;20479;-91
2023/08/04 02:05:24;;;;;;;2.00;1.50;;;24.00;99.90;;;;;;4939970;29;20636;-90
2023/08/04 02:07:51;;;;;;;1.47;1.27;;;24.00;99.90;;;;;;4943060;29;20474;-91
2023/08/04 02:10:18;;;;;;;1.53;1.07;;;24.00;99.90;;;;;;4944586;29;20883;-91
2023/08/04 02:12:46;;;;;;;1.33;1.13;;;24.00;99.90;;;;;;4944097;29;20864;-91
2023/08/04 02:15:13;;;;;;;1.33;1.20;;;24.00;99.90;;;;;;4944519;29;20503;-90
2023/08/04 02:17:39;;;;;;;1.70;1.50;;;24.00;99.90;;;;;;4945117;29;20547;-91
2023/08/04 02:20:07;;;;;;;1.90;1.53;;;24.00;99.90;;;;;;4944054;29;20449;-90
2023/08/04 02:22:34;;;;;;;1.93;1.20;;;24.00;99.90;;;;;;4943879;29;20524;-91
2023/08/04 02:25:01;;;;;;;1.87;1.23;;;23.90;99.90;;;;;;4945422;29;20967;-90
2023/08/04 02:27:28;;;;;;;2.40;1.37;;;23.90;99.90;;;;;;4944554;29;20451;-91
2023/08/04 02:29:57;;;;;;;1.30;1.10;;;24.00;99.90;;;;;;4943889;29;20833;-92
2023/08/04 02:32:26;;;;;;;1.73;1.23;;;24.00;99.90;;;;;;4943358;29;20551;-91
2023/08/04 02:34:53;;;;;;;1.57;1.47;;;23.90;99.90;;;;;;4943126;29;20534;-91
2023/08/04 02:37:19;;;;;;;2.10;1.53;;;23.90;99.90;;;;;;4943555;29;20563;-90
2023/08/04 02:39:46;;;;;;;1.70;1.60;;;23.90;99.90;;;;;;4923201;29;20519;-90
2023/08/04 02:42:13;;;;;;;1.80;1.40;;;24.00;99.90;;;;;;4924618;29;20479;-91
2023/08/04 02:44:40;;;;;;;1.30;1.10;;;24.00;99.90;;;;;;4923566;29;20452;-92
2023/08/04 02:47:08;;;;;;;1.63;1.40;;;24.00;99.90;;;;;;4924258;29;20596;-91
2023/08/04 02:49:36;;;;;;;1.27;1.17;;;24.00;99.90;;;;;;4940729;29;20444;-91
2023/08/04 02:52:05;;;;;;;2.27;1.47;;;23.90;99.90;;;;;;4944815;29;20447;-89
2023/08/04 02:54:31;;;;;;;1.73;1.40;;;23.90;99.90;;;;;;4942219;29;20452;-90
2023/08/04 02:56:58;;;;;;;1.60;1.23;;;23.90;99.90;;;;;;4941220;29;20522;-90
2023/08/04 02:59:25;;;;;;;1.93;1.40;;;24.00;99.90;;;;;;4940234;29;20532;-90
2023/08/04 03:01:52;;;;;;;1.50;1.40;;;23.90;99.90;;;;;;4939779;29;20444;-90
2023/08/04 03:04:20;;;;;;;1.57;1.47;;;23.90;99.90;;;;;;4939749;29;20458;-90
2023/08/04 03:06:47;;;;;;;1.30;1.20;;;23.90;99.90;;;;;;4939228;29;20590;-91
2023/08/04 03:09:14;;;;;;;1.40;1.03;;;23.90;99.90;;;;;;4939653;29;20547;-90
2023/08/04 03:11:41;;;;;;;1.60;1.20;;;23.90;99.90;;;;;;4939710;29;20451;-90
2023/08/04 03:14:08;;;;;;;1.13;1.00;;;23.90;99.90;;;;;;4939482;29;20461;-91
2023/08/04 03:16:35;;;;;;;1.50;1.40;;;23.90;99.90;;;;;;4943188;29;20459;-91
2023/08/04 03:19:02;;;;;;;1.20;1.07;;;23.90;99.90;;;;;;4944581;29;20508;-91
2023/08/04 03:21:30;;;;;;;1.40;1.30;;;23.90;99.90;;;;;;4944085;29;20479;-90
2023/08/04 03:23:57;;;;;;;1.93;1.70;;;23.90;99.90;;;;;;4942423;29;20887;-90
2023/08/04 03:26:26;;;;;;;1.33;1.23;;;23.90;99.90;;;;;;4943615;29;20586;-89
2023/08/04 03:28:53;;;;;;;1.57;1.40;;;23.90;99.90;;;;;;4943849;29;20490;-92
2023/08/04 03:31:20;;;;;;;1.77;1.10;;;23.90;99.90;;;;;;4945722;29;20458;-91
2023/08/04 03:33:46;;;;;;;2.20;1.30;;;23.90;99.90;;;;;;4942748;29;20529;-91
2023/08/04 03:36:13;;;;;;;1.20;1.03;;;23.90;99.90;;;;;;4944951;29;20526;-90
2023/08/04 03:38:49;;;;;;;1.77;1.47;;;23.90;99.90;;;;;;4946233;29;20482;-90
2023/08/04 03:41:16;;;;;;;1.50;1.20;;;23.90;99.90;;;;;;4944790;29;20451;-93
2023/08/04 03:43:48;;;;;;;2.07;1.63;;;23.90;99.90;;;;;;4940304;29;20448;-95
2023/08/04 03:46:15;;;;;;;3.30;2.77;;;23.80;99.90;;;;;;4943159;29;20474;-94
2023/08/04 03:48:42;;;;;;;3.03;2.53;;;23.80;99.10;;;;;;4940803;29;20535;-93
2023/08/04 03:51:09;;;;;;;6.20;3.30;;;23.80;98.90;;;;;;4944263;29;20478;-94
2023/08/04 03:53:36;;;;;;;4.83;3.20;;;23.70;98.90;;;;;;4941235;29;20450;-94
2023/08/04 03:56:05;;;;;;;9.20;3.47;;;23.80;98.90;;;;;;4938453;29;20440;-94
2023/08/04 03:58:32;;;;;;;5.90;3.00;;;23.60;98.70;;;;;;4939631;29;20538;-94
2023/08/04 04:00:59;;;;;;;3.53;2.23;;;23.60;98.80;;;;;;4939906;29;20466;-93
2023/08/04 04:03:26;;;;;;;5.60;3.40;;;23.40;98.90;;;;;;4939006;29;20446;-93
2023/08/04 04:05:53;;;;;;;6.97;3.17;;;23.40;99.00;;;;;;4938683;29;20498;-92
2023/08/04 04:08:20;;;;;;;5.20;3.23;;;23.30;98.90;;;;;;4937683;29;20446;-93
2023/08/04 04:10:51;;;;;;;9.40;3.43;;;23.30;98.90;;;;;;4941180;29;20461;-94
2023/08/04 04:13:19;;;;;;;15.93;8.63;;;23.20;98.90;;;;;;4940351;29;20815;-95
2023/08/04 04:15:46;;;;;;;16.30;8.00;;;23.20;99.00;;;;;;4939032;29;20449;-95
2023/08/04 04:18:15;;;;;;;13.57;5.93;;;23.20;99.10;;;;;;4938522;29;20485;-94
2023/08/04 04:20:42;;;;;;;6.87;4.43;;;23.30;99.20;;;;;;4940589;29;20536;-95
2023/08/04 04:23:12;;;;;;;11.03;3.87;;;23.10;99.10;;;;;;4938591;29;20533;-94
2023/08/04 04:25:38;;;;;;;8.47;4.00;;;23.10;99.20;;;;;;4939072;29;20508;-94
2023/08/04 04:28:05;;;;;;;7.93;3.93;;;23.10;99.20;;;;;;4940045;29;20469;-94
2023/08/04 04:30:34;;;;;;;5.83;3.60;;;23.00;99.20;;;;;;4938007;29;20867;-92
2023/08/04 04:33:00;;;;;;;6.93;4.00;;;23.00;99.40;;;;;;4937887;29;20446;-94
2023/08/04 04:35:27;;;;;;;5.03;3.63;;;23.00;99.60;;;;;;4937411;29;20537;-93
2023/08/04 04:37:54;;;;;;;8.50;3.63;;;23.00;99.80;;;;;;4937753;29;20442;-94
2023/08/04 04:40:21;;;;;;;11.03;3.50;;;23.00;99.90;;;;;;4937774;29;20537;-93
2023/08/04 04:42:48;;;;;;;5.40;3.30;;;23.10;99.90;;;;;;4937676;29;20451;-94
2023/08/04 04:45:15;;;;;;;5.57;2.60;;;23.20;99.90;;;;;;4937326;29;20813;-94
2023/08/04 04:47:43;;;;;;;5.73;2.97;;;23.20;99.90;;;;;;4937107;29;20492;-92
2023/08/04 04:50:10;;;;;;;4.60;3.47;;;23.20;99.90;;;;;;4937927;29;20542;-93
2023/08/04 04:52:38;;;;;;;11.10;4.57;;;23.30;99.90;;;;;;4937145;29;20538;-94
2023/08/04 04:55:06;;;;;;;7.33;3.70;;;23.30;99.90;;;;;;4937079;29;20885;-94
2023/08/04 04:57:39;;;;;;;4.27;3.10;;;23.30;99.90;;;;;;4938144;29;20457;-92
2023/08/04 05:00:07;;;;;;;5.30;2.90;;;23.40;99.90;;;;;;4937859;29;21017;-93
2023/08/04 05:02:34;;;;;;;6.03;3.37;;;23.40;99.90;;;;;;4937023;29;20540;-95
2023/08/04 05:05:04;;;;;;;6.10;3.30;;;23.40;99.90;;;;;;4937542;29;20537;-95
2023/08/04 05:07:31;;;;;;;7.40;2.77;;;23.40;99.90;;;;;;4936874;29;20582;-94
2023/08/04 05:09:58;;;;;;;5.20;3.30;;;23.40;99.90;;;;;;4936915;29;20517;-94
2023/08/04 05:12:25;;;;;;;4.90;2.90;;;23.40;99.90;;;;;;4937361;29;20457;-93
2023/08/04 05:14:52;;;;;;;6.13;2.97;;;23.40;99.90;;;;;;4936988;29;20482;-93
2023/08/04 05:17:19;;;;;;;8.40;3.80;;;23.40;99.90;;;;;;4938397;29;20574;-94
2023/08/04 05:19:46;;;;;;;7.80;3.10;;;23.40;99.90;;;;;;4940663;29;20442;-94
2023/08/04 05:22:14;;;;;;;6.20;3.17;;;23.50;99.90;;;;;;4941252;29;20484;-94
2023/08/04 05:24:41;;;;;;;7.50;3.30;;;23.50;99.90;;;;;;4940948;29;20457;-93
2023/08/04 05:27:08;;;;;;;4.77;2.57;;;23.50;99.90;;;;;;4940556;29;20515;-93
2023/08/04 05:29:35;;;;;;;3.27;2.63;;;23.50;99.90;;;;;;4940386;29;20446;-93
2023/08/04 05:32:02;;;;;;;6.87;3.30;;;23.50;99.90;;;;;;4940529;29;20555;-93
2023/08/04 05:34:29;;;;;;;7.00;3.00;;;23.60;99.90;;;;;;4941156;29;20801;-93
2023/08/04 05:36:56;;;;;;;3.90;3.23;;;23.50;99.90;;;;;;4940904;29;20888;-93
2023/08/04 05:39:26;;;;;;;3.13;2.80;;;23.50;99.90;;;;;;4941352;29;20781;-93
2023/08/04 05:41:53;;;;;;;4.20;2.70;;;23.50;99.90;;;;;;4941182;29;20450;-95
2023/08/04 05:44:22;;;;;;;3.90;2.43;;;23.50;99.90;;;;;;4940331;29;20454;-94
2023/08/04 05:46:49;;;;;;;4.00;2.60;;;23.50;99.90;;;;;;4941222;29;20487;-92
2023/08/04 05:49:16;;;;;;;5.97;3.30;;;23.50;99.90;;;;;;4939783;29;20966;-93
2023/08/04 05:51:43;;;;;;;4.00;2.90;;;23.50;99.90;;;;;;4940339;29;20442;-92
2023/08/04 05:54:10;;;;;;;3.13;2.80;;;23.60;99.90;;;;;;4940528;29;20547;-93
2023/08/04 05:56:38;;;;;;;7.20;2.97;;;23.50;99.90;;;;;;4940936;29;20455;-93
2023/08/04 05:59:05;;;;;;;2.60;2.40;;;23.50;99.90;;;;;;4940162;29;20540;-93
2023/08/04 06:01:32;;;;;;;6.80;2.67;;;23.60;99.90;;;;;;4940005;29;20452;-93
2023/08/04 06:03:59;;;;;;;3.43;2.30;;;23.60;99.90;;;;;;4940335;29;20855;-92
2023/08/04 06:06:26;;;;;;;3.13;2.30;;;23.60;99.90;;;;;;4939736;29;20520;-90
2023/08/04 06:08:52;;;;;;;6.23;2.90;;;23.60;99.90;;;;;;4938330;29;20461;-91
2023/08/04 06:11:21;;;;;;;4.03;2.70;;;23.60;99.90;;;;;;4938904;29;20801;-91
2023/08/04 06:13:49;;;;;;;4.07;2.53;;;23.70;99.90;;;;;;4938398;29;20521;-91
2023/08/04 06:16:16;;;;;;;3.63;2.33;;;23.70;99.60;;;;;;4938802;29;20477;-93
2023/08/04 06:18:43;;;;;;;6.20;2.70;;;23.70;99.50;;;;;;4938825;29;20478;-92
2023/08/04 06:21:10;;;;;;;7.93;2.80;;;23.60;99.10;;;;;;4938778;29;20486;-93
2023/08/04 06:23:37;;;;;;;6.87;2.60;;;23.70;99.10;;;;;;4938758;29;20449;-92
2023/08/04 06:26:04;;;;;;;4.97;2.47;;;23.80;99.40;;;;;;4938683;29;20800;-91
2023/08/04 06:28:30;;;;;;;3.03;2.47;;;23.70;99.20;;;;;;4936027;29;20494;-92
2023/08/04 06:30:59;;;;;;;3.33;2.20;;;23.70;99.40;;;;;;4937366;29;20540;-92
2023/08/04 06:33:25;;;;;;;2.57;2.23;;;23.70;99.20;;;;;;4937789;29;20854;-93
2023/08/04 06:35:52;;;;;;;3.63;2.20;;;23.70;99.20;;;;;;4937279;29;20473;-93
2023/08/04 06:38:19;;;;;;;7.60;3.10;;;23.70;99.20;;;;;;4937296;29;20824;-93
2023/08/04 06:40:46;;;;;;;2.50;2.30;;;23.70;99.10;;;;;;4937400;29;20456;-93
2023/08/04 06:43:13;;;;;;;7.20;2.73;;;23.70;99.20;;;;;;4938162;29;20530;-92
2023/08/04 06:45:40;;;;;;;5.40;2.80;;;23.70;99.80;;;;;;4939122;29;20533;-91
2023/08/04 06:48:08;;;;;;;6.23;2.57;;;23.70;99.40;;;;;;4938431;29;20577;-92
2023/08/04 06:50:35;;;;;;;3.30;2.13;;;23.70;99.30;;;;;;4938516;29;20444;-91
2023/08/04 06:53:02;;;;;;;2.80;2.50;;;23.70;99.30;;;;;;4938567;29;20949;-93
2023/08/04 06:55:28;;;;;;;2.80;2.50;;;23.70;99.20;;;;;;4938533;29;20453;-93
2023/08/04 06:57:56;;;;;;;2.37;2.00;;;23.80;99.10;;;;;;4938371;29;20449;-92
2023/08/04 07:00:23;;;;;;;3.27;1.90;;;23.80;99.10;;;;;;4938260;29;20451;-91
2023/08/04 07:02:50;;;;;;;2.60;2.07;;;23.80;99.10;;;;;;4937985;29;20954;-90
2023/08/04 07:05:18;;;;;;;3.67;2.10;;;23.80;98.90;;;;;;4938039;29;20447;-91
2023/08/04 07:07:46;;;;;;;3.10;2.00;;;23.80;99.00;;;;;;4937609;29;20505;-89
2023/08/04 07:10:13;;;;;;;2.67;2.17;;;23.80;99.00;;;;;;4938311;29;20949;-91
2023/08/04 07:12:40;;;;;;;2.13;1.93;;;23.80;98.70;;;;;;4937899;29;20450;-93
2023/08/04 07:15:09;;;;;;;4.17;2.03;;;23.80;98.50;;;;;;4938257;29;20450;-91
2023/08/04 07:17:36;;;;;;;5.10;2.43;;;23.80;98.50;;;;;;4937947;29;20488;-92
2023/08/04 07:20:04;;;;;;;4.10;2.10;;;23.80;98.50;;;;;;4937911;29;20440;-91
2023/08/04 07:22:32;;;;;;;2.63;2.00;;;23.90;98.60;;;;;;4939981;29;20458;-89
2023/08/04 07:24:58;;;;;;;5.60;2.40;;;23.80;98.50;;;;;;4937434;29;20470;-89
2023/08/04 07:27:25;;;;;;;3.90;2.47;;;23.90;98.60;;;;;;4937364;29;20495;-89
2023/08/04 07:29:52;;;;;;;2.27;1.90;;;23.90;98.60;;;;;;4937818;29;20444;-92
2023/08/04 07:32:19;;;;;;;2.60;2.27;;;23.90;98.50;;;;;;4937991;29;21004;-91
2023/08/04 07:34:46;;;;;;;4.00;2.20;;;23.90;98.50;;;;;;4937636;29;20448;-90
2023/08/04 07:37:13;;;;;;;5.53;2.30;;;23.90;98.50;;;;;;4938249;29;20475;-88
2023/08/04 07:39:41;;;;;;;2.60;2.17;;;23.90;98.40;;;;;;4938108;29;20923;-89
2023/08/04 07:42:08;;;;;;;3.40;2.00;;;23.90;98.50;;;;;;4938166;29;20447;-91
2023/08/04 07:44:37;;;;;;;2.17;1.80;;;23.90;98.50;;;;;;4937845;29;20442;-90
2023/08/04 07:47:04;;;;;;;2.37;2.10;;;23.90;98.50;;;;;;4937637;29;20487;-89
2023/08/04 07:49:30;;;;;;;2.00;1.80;;;23.90;98.40;;;;;;4937984;29;20447;-89
2023/08/04 07:51:57;;;;;;;3.33;2.10;;;23.90;98.40;;;;;;4939614;29;20454;-90
2023/08/04 07:54:25;;;;;;;1.97;1.77;;;23.90;98.40;;;;;;4937817;29;20454;-90
2023/08/04 07:56:53;;;;;;;6.97;2.40;;;23.80;98.30;;;;;;4937855;29;20963;-92
2023/08/04 07:59:20;;;;;;;3.10;2.10;;;23.90;98.40;;;;;;4937354;29;20445;-91
2023/08/04 08:01:47;;;;;;;4.10;2.00;;;23.90;98.50;;;;;;4937603;29;20471;-90
2023/08/04 08:04:14;;;;;;;2.70;2.50;;;23.90;98.40;;;;;;4937157;29;20532;-90
2023/08/04 08:06:40;;;;;;;3.80;2.00;;;23.90;98.40;;;;;;4937129;29;20563;-90
2023/08/04 08:09:08;;;;;;;2.10;1.93;;;23.90;98.30;;;;;;4936868;29;20589;-89
2023/08/04 08:11:35;;;;;;;2.23;1.90;;;24.00;98.30;;;;;;4937013;29;20520;-89
2023/08/04 08:14:03;;;;;;;3.03;2.40;;;24.00;98.30;;;;;;4937204;29;20473;-90
2023/08/04 08:16:30;;;;;;;2.90;2.23;;;24.00;98.30;;;;;;4936836;29;20458;-89
2023/08/04 08:18:57;;;;;;;2.43;2.10;;;24.00;98.30;;;;;;4937014;29;20777;-89
2023/08/04 08:21:23;;;;;;;2.03;1.90;;;24.00;98.40;;;;;;4936975;29;20439;-90
2023/08/04 08:23:50;;;;;;;1.97;1.87;;;24.00;98.30;;;;;;4937477;29;20448;-89
2023/08/04 08:26:17;;;;;;;2.13;1.93;;;24.00;98.30;;;;;;4937330;29;20444;-92
2023/08/04 08:28:44;;;;;;;2.23;1.77;;;24.00;98.20;;;;;;4940795;29;20508;-91
2023/08/04 08:31:20;;;;;;;2.23;2.03;;;24.00;98.20;;;;;;4941966;29;20472;-90
2023/08/04 08:33:52;;;;;;;1.80;1.70;;;24.00;98.20;;;;;;4942161;29;20464;-93
2023/08/04 08:36:20;;;;;;;2.27;1.90;;;24.00;98.10;;;;;;4938928;29;20498;-92
2023/08/04 08:38:49;;;;;;;1.60;1.50;;;24.00;98.40;;;;;;4944101;29;20443;-90
2023/08/04 08:41:16;;;;;;;2.80;2.10;;;24.00;98.60;;;;;;4943706;29;20501;-89
2023/08/04 08:43:44;;;;;;;3.50;2.00;;;24.00;98.30;;;;;;4942821;29;20605;-88
2023/08/04 08:46:16;;;;;;;3.33;1.90;;;24.00;98.40;;;;;;4943693;29;20513;-90
2023/08/04 08:48:45;;;;;;;2.63;2.43;;;24.00;98.70;;;;;;4957963;23;21003;-89
2023/08/04 08:51:17;;;;;;;2.20;2.10;;;24.00;98.30;;;;;;4943387;29;20447;-89
2023/08/04 08:53:47;;;;;;;2.20;2.00;;;24.00;98.30;;;;;;4941323;29;20446;-89
2023/08/04 08:56:14;;;;;;;1.90;1.70;;;24.00;98.30;;;;;;4941317;29;20534;-85
2023/08/04 08:58:42;;;;;;;2.93;2.10;;;24.00;98.20;;;;;;4943768;29;20446;-91
2023/08/04 09:01:09;;;;;;;2.23;1.60;;;24.00;98.40;;;;;;4937895;29;20444;-95
2023/08/04 09:03:39;;;;;;;2.90;2.00;;;23.90;98.30;;;;;;4937248;29;20525;-95
2023/08/04 09:06:06;;;;;;;2.70;2.10;;;24.00;98.50;;;;;;4937690;29;20484;-95
2023/08/04 09:08:33;;;;;;;1.97;1.77;;;24.00;98.40;;;;;;4937622;29;20559;-95
2023/08/04 09:11:00;;;;;;;2.20;1.97;;;24.00;98.40;;;;;;4937718;29;20878;-95
2023/08/04 09:13:29;;;;;;;2.20;2.10;;;24.00;98.40;;;;;;4938108;29;20477;-94
2023/08/04 09:15:58;;;;;;;2.83;2.03;;;24.10;98.50;;;;;;4937215;29;20449;-95
2023/08/04 09:18:30;;;;;;;2.50;1.57;;;24.10;98.60;;;;;;4936990;29;20462;-94
2023/08/04 09:21:17;;;;;;;2.10;1.87;;;24.10;98.50;;;;;;4937748;29;20457;-95
2023/08/04 09:23:51;;;;;;;2.20;2.00;;;24.10;98.40;;;;;;4937507;29;20465;-94
2023/08/04 09:26:19;;;;;;;1.80;1.67;;;24.10;98.50;;;;;;4937330;29;20856;-94
2023/08/04 09:28:46;;;;;;;2.10;1.60;;;24.10;98.50;;;;;;4936546;29;20914;-94
2023/08/04 09:31:14;;;;;;;2.63;2.30;;;24.10;98.40;;;;;;4937149;29;20789;-95
2023/08/04 09:33:43;;;;;;;2.33;2.13;;;24.10;98.60;;;;;;4936997;29;20449;-94
2023/08/04 09:36:13;;;;;;;2.17;1.97;;;24.10;98.50;;;;;;4936637;29;20477;-94
2023/08/04 09:38:41;;;;;;;2.20;1.63;;;24.20;98.50;;;;;;4937573;29;20447;-94
2023/08/04 09:41:09;;;;;;;2.03;1.70;;;24.10;98.50;;;;;;4936643;29;20455;-94
2023/08/04 09:43:44;;;;;;;2.27;1.87;;;24.10;98.60;;;;;;4936649;29;20549;-94
2023/08/04 09:46:11;;;;;;;2.77;1.93;;;24.30;99.10;;;;;;4937516;29;20447;-94
2023/08/04 09:48:38;;;;;;;1.93;1.50;;;24.20;98.70;;;;;;4936330;29;21029;-94
2023/08/04 09:51:06;;;;;;;2.10;1.80;;;24.20;98.70;;;;;;4937457;29;20936;-94
2023/08/04 09:53:41;;;;;;;1.60;1.40;;;24.20;98.90;;;;;;4936550;29;20933;-94
2023/08/04 09:56:10;;;;;;;3.10;1.90;;;24.20;98.90;;;;;;4937548;29;20447;-95
2023/08/04 09:58:37;;;;;;;2.50;2.30;;;24.30;98.80;;;;;;4938666;29;20459;-85
2023/08/04 10:01:07;;;;;;;1.80;1.40;;;24.30;98.60;;;;;;4937986;29;20958;-95
2023/08/04 10:03:35;;;;;;;3.93;1.57;;;24.30;98.20;;;;;;4939096;29;20967;-95
2023/08/04 10:06:03;;;;;;;2.33;1.83;;;24.30;98.50;;;;;;4940582;29;20494;-94
2023/08/04 10:08:31;;;;;;;2.00;1.80;;;24.30;98.60;;;;;;4939794;29;20992;-95
2023/08/04 10:11:00;;;;;;;2.03;1.53;;;24.30;98.60;;;;;;4940617;29;20870;-94
2023/08/04 10:13:30;;;;;;;2.03;1.83;;;24.40;98.80;;;;;;4940340;29;20538;-94
2023/08/04 10:15:59;;;;;;;2.40;1.80;;;24.40;98.80;;;;;;4939679;29;20479;-94
2023/08/04 10:18:27;;;;;;;1.93;1.80;;;24.40;98.70;;;;;;4939945;29;20452;-95
2023/08/04 10:20:54;;;;;;;1.80;1.70;;;24.40;98.70;;;;;;4940036;29;20536;-94
2023/08/04 10:23:21;;;;;;;2.37;1.97;;;24.40;98.70;;;;;;4939564;29;20940;-94
2023/08/04 10:25:55;;;;;;;1.70;1.40;;;24.40;98.50;;;;;;4940241;29;20953;-94
2023/08/04 10:28:26;;;;;;;2.53;1.60;;;24.50;98.60;;;;;;4939649;29;20556;-94
2023/08/04 10:31:03;;;;;;;1.70;1.43;;;24.50;98.70;;;;;;4939642;29;20452;-94
2023/08/04 10:33:30;;;;;;;1.60;1.50;;;24.50;98.70;;;;;;4939503;29;20454;-95
2023/08/04 10:36:06;;;;;;;2.00;1.80;;;24.50;98.60;;;;;;4939791;29;21040;-94
2023/08/04 10:38:44;;;;;;;2.20;2.00;;;24.50;98.60;;;;;;4939374;29;20451;-94
2023/08/04 10:41:11;;;;;;;2.17;1.57;;;24.50;98.60;;;;;;4940061;29;20526;-95
2023/08/04 10:43:40;;;;;;;1.63;1.53;;;24.50;98.70;;;;;;4939871;29;20526;-95
2023/08/04 10:46:13;;;;;;;1.70;1.60;;;24.50;98.80;;;;;;4939986;29;20451;-94
2023/08/04 10:48:41;;;;;;;1.73;1.53;;;24.50;98.70;;;;;;4939455;29;20539;-94
2023/08/04 10:51:09;;;;;;;1.70;1.37;;;24.50;98.60;;;;;;4939378;29;21032;-95
2023/08/04 10:53:36;;;;;;;1.43;1.20;;;24.60;98.70;;;;;;4939502;29;20867;-94
2023/08/04 10:56:08;;;;;;;1.50;1.40;;;24.50;98.60;;;;;;4939354;29;20449;-94
2023/08/04 10:58:35;;;;;;;2.40;1.43;;;24.50;98.50;;;;;;4939784;29;20476;-95
2023/08/04 11:01:03;;;;;;;1.47;1.37;;;24.60;98.30;;;;;;4939614;29;20451;-94
2023/08/04 11:03:33;;;;;;;1.50;1.40;;;24.60;98.30;;;;;;4939533;29;20841;-94
2023/08/04 11:06:00;;;;;;;2.07;1.87;;;24.50;98.30;;;;;;4939333;29;20476;-94
2023/08/04 11:08:27;;;;;;;1.67;1.50;;;24.60;98.70;;;;;;4938569;29;20504;-94
2023/08/04 11:10:55;;;;;;;1.50;1.40;;;24.60;98.40;;;;;;4939531;29;21009;-95
2023/08/04 11:13:24;;;;;;;1.67;1.47;;;24.50;98.30;;;;;;4938879;29;20543;-95
2023/08/04 11:15:53;;;;;;;1.50;1.40;;;24.60;98.50;;;;;;4938205;29;20542;-94
2023/08/04 11:18:24;;;;;;;2.10;1.90;;;24.60;98.40;;;;;;4938408;29;20467;-95
2023/08/04 11:20:52;;;;;;;2.23;1.60;;;24.60;98.50;;;;;;4939496;29;20451;-95
2023/08/04 11:23:26;;;;;;;1.80;1.70;;;24.60;98.50;;;;;;4938693;29;20446;-95
2023/08/04 11:25:53;;;;;;;1.50;1.30;;;24.60;98.40;;;;;;4939204;29;20436;-95
2023/08/04 11:28:21;;;;;;;1.43;1.10;;;24.60;98.50;;;;;;4939332;29;20487;-95
2023/08/04 11:30:48;;;;;;;1.50;1.30;;;24.70;98.30;;;;;;4938876;29;20491;-94
2023/08/04 11:33:16;;;;;;;1.67;1.57;;;24.70;98.30;;;;;;4938454;29;20543;-95
2023/08/04 11:35:47;;;;;;;1.50;1.27;;;24.70;98.40;;;;;;4938848;29;21005;-95
2023/08/04 11:38:15;;;;;;;1.50;1.40;;;24.70;98.40;;;;;;4938720;29;20451;-95
2023/08/04 11:40:57;;;;;;;1.60;1.50;;;24.70;98.40;;;;;;4939027;29;20511;-95
2023/08/04 11:43:24;;;;;;;1.70;1.50;;;24.70;98.50;;;;;;4939113;29;20482;-94
2023/08/04 11:45:51;;;;;;;1.50;1.40;;;24.70;98.40;;;;;;4938649;29;20534;-94
2023/08/04 11:48:18;;;;;;;1.40;1.30;;;24.70;98.50;;;;;;4938280;29;20515;-94
2023/08/04 11:50:48;;;;;;;1.30;1.10;;;24.70;98.50;;;;;;4938104;29;20497;-94
2023/08/04 11:53:16;;;;;;;1.43;1.20;;;24.70;98.40;;;;;;4938837;29;20452;-94
2023/08/04 11:55:57;;;;;;;2.63;1.67;;;24.70;98.70;;;;;;4938087;29;20527;-95
2023/08/04 11:58:31;;;;;;;1.77;1.60;;;24.70;98.70;;;;;;4938449;29;20552;-94
2023/08/04 12:00:58;;;;;;;1.60;1.50;;;24.70;98.70;;;;;;4937844;29;20548;-94
2023/08/04 12:03:25;;;;;;;1.30;1.20;;;24.70;98.60;;;;;;4938415;29;20448;-95
2023/08/04 12:05:53;;;;;;;1.60;1.43;;;24.70;98.70;;;;;;4937691;29;20470;-95
2023/08/04 12:08:20;;;;;;;1.70;1.23;;;24.80;98.70;;;;;;4937910;29;20544;-94
2023/08/04 12:11:01;;;;;;;1.20;1.10;;;24.80;98.70;;;;;;4937621;29;20540;-94
2023/08/04 12:13:34;;;;;;;1.13;1.03;;;24.80;98.70;;;;;;4937738;29;20546;-95
2023/08/04 12:16:01;;;;;;;1.40;1.30;;;24.90;98.80;;;;;;4938213;29;20882;-94
2023/08/04 12:18:29;;;;;;;1.83;1.43;;;24.80;98.70;;;;;;4937697;29;20559;-94
2023/08/04 12:20:58;;;;;;;1.37;1.10;;;24.90;98.80;;;;;;4937436;29;20954;-94
2023/08/04 12:23:25;;;;;;;1.30;1.20;;;24.90;98.70;;;;;;4937523;29;20454;-95
2023/08/04 12:25:52;;;;;;;1.80;1.60;;;24.90;98.60;;;;;;4937938;29;20513;-94
2023/08/04 12:28:19;;;;;;;1.30;1.00;;;24.90;98.60;;;;;;4937107;29;20538;-94
2023/08/04 12:30:46;;;;;;;1.50;1.30;;;24.90;98.50;;;;;;4937363;29;20956;-94
2023/08/04 12:33:13;;;;;;;1.70;1.30;;;24.90;98.60;;;;;;4937481;29;20545;-95
2023/08/04 12:35:40;;;;;;;2.10;1.50;;;24.90;98.50;;;;;;4937764;29;20524;-94
2023/08/04 12:38:09;;;;;;;1.30;1.10;;;24.90;98.50;;;;;;4937119;29;20452;-93
2023/08/04 12:40:36;;;;;;;3.00;1.20;;;24.80;98.50;;;;;;4937066;29;20483;-93
2023/08/04 12:43:03;;;;;;;1.00;0.87;;;24.80;98.50;;;;;;4937206;29;20455;-93
2023/08/04 12:45:30;;;;;;;1.53;1.40;;;24.90;98.60;;;;;;4937423;29;20843;-94
2023/08/04 12:47:58;;;;;;;1.33;1.23;;;24.80;98.60;;;;;;4937051;29;20516;-93
2023/08/04 12:50:24;;;;;;;1.40;1.13;;;24.90;98.60;;;;;;4941950;29;20992;-90